Wetterdaten: aktuell Mittwoch, 20.02.2019 16:50
Datum Zeit Temp. A. Feuchte A. Luftdruck Regen Wind Taupunkt Windchill Windben
20.02.2019 16:50 9,4 C 62 % 1025,7 hPa 0,0 l/m 4,1 km/h (1 Bft) 2,5 C 9,4 C 9,7 km/h (2 Bft)
20.02.2019 16:45 9,3 C 62 % 1025,8 hPa 0,0 l/m 4,5 km/h (1 Bft) 2,4 C 9,3 C 8,0 km/h (2 Bft)
20.02.2019 16:40 9,4 C 61 % 1025,9 hPa 0,0 l/m 6,7 km/h (2 Bft) 2,3 C 9,2 C 12,9 km/h (3 Bft)
20.02.2019 16:35 9,4 C 61 % 1025,7 hPa 0,0 l/m 6,0 km/h (2 Bft) 2,3 C 9,4 C 11,3 km/h (2 Bft)
20.02.2019 16:30 9,4 C 61 % 1025,8 hPa 0,0 l/m 4,3 km/h (1 Bft) 2,3 C 9,4 C 12,9 km/h (3 Bft)
20.02.2019 16:25 9,5 C 61 % 1025,9 hPa 0,0 l/m 6,9 km/h (2 Bft) 2,4 C 9,1 C 11,3 km/h (2 Bft)
20.02.2019 16:20 9,6 C 60 % 1026,0 hPa 0,0 l/m 5,9 km/h (2 Bft) 2,2 C 9,6 C 16,1 km/h (3 Bft)
20.02.2019 16:15 9,6 C 61 % 1025,9 hPa 0,0 l/m 6,8 km/h (2 Bft) 2,5 C 9,3 C 16,1 km/h (3 Bft)
20.02.2019 16:10 9,7 C 60 % 1025,9 hPa 0,0 l/m 6,7 km/h (2 Bft) 2,3 C 9,5 C 16,1 km/h (3 Bft)
20.02.2019 16:05 9,7 C 61 % 1025,9 hPa 0,0 l/m 7,3 km/h (2 Bft) 2,5 C 9,0 C 14,5 km/h (3 Bft)
20.02.2019 16:00 9,7 C 62 % 1025,8 hPa 0,0 l/m 6,2 km/h (2 Bft) 2,8 C 9,7 C 16,1 km/h (3 Bft)
20.02.2019 15:55 9,7 C 61 % 1025,9 hPa 0,0 l/m 9,5 km/h (2 Bft) 2,5 C 7,6 C 17,7 km/h (3 Bft)
20.02.2019 15:50 9,7 C 60 % 1025,8 hPa 0,0 l/m 9,5 km/h (2 Bft) 2,3 C 7,6 C 16,1 km/h (3 Bft)
20.02.2019 15:45 9,8 C 60 % 1025,9 hPa 0,0 l/m 8,6 km/h (2 Bft) 2,4 C 8,2 C 20,9 km/h (4 Bft)
20.02.2019 15:40 9,9 C 61 % 1025,9 hPa 0,0 l/m 6,0 km/h (2 Bft) 2,7 C 9,9 C 17,7 km/h (3 Bft)
20.02.2019 15:35 9,9 C 61 % 1025,9 hPa 0,0 l/m 9,8 km/h (2 Bft) 2,7 C 7,6 C 19,3 km/h (3 Bft)
20.02.2019 15:30 9,9 C 60 % 1025,9 hPa 0,0 l/m 9,7 km/h (2 Bft) 2,5 C 7,7 C 17,7 km/h (3 Bft)
20.02.2019 15:25 9,9 C 61 % 1026,0 hPa 0,0 l/m 10,0 km/h (2 Bft) 2,7 C 7,5 C 16,1 km/h (3 Bft)
20.02.2019 15:20 9,8 C 62 % 1025,9 hPa 0,0 l/m 5,7 km/h (1 Bft) 2,9 C 9,8 C 11,3 km/h (2 Bft)
20.02.2019 15:15 9,7 C 60 % 1025,9 hPa 0,0 l/m 9,5 km/h (2 Bft) 2,3 C 7,6 C 17,7 km/h (3 Bft)
20.02.2019 15:10 9,7 C 62 % 1025,9 hPa 0,0 l/m 7,3 km/h (2 Bft) 2,8 C 9,0 C 14,5 km/h (3 Bft)
_ Min-Zeit 04:50 15:15 00:00 - 00:25 04:40 04:55 00:45
Minimum _ -3,4 C 60 % 1023,8 hPa - 0,0 km/h (0 Bft) -5,3 C -3,4 C 0,0 km/h (0 Bft)
_ Max-Zeit 15:30 08:10 11:50 00:00 14:20 13:10 15:40 14:20
Maximum _ 10,0 C 89 % 1027,0 hPa 0,0 l/m 10,6 km/h
NW (2 Bft)
4,4 C 9,9 C 20,9 km/h
W (4 Bft)
Durchschnitt _ 1,7 C 80 % 1025,3 hPa #0,0 l/m 2,7 km/h (1 Bft) -1,5 C 1,5 C 5,7 km/h (1 Bft)